sensor_id;sensor_type;location;lat;lon;timestamp;temperature;humidity
13982;DHT22;7065;50.880;5.502;2022-11-21T00:00:51;6.30;99.90
13982;DHT22;7065;50.880;5.502;2022-11-21T00:03:17;6.30;99.90
13982;DHT22;7065;50.880;5.502;2022-11-21T00:05:45;6.30;99.90
13982;DHT22;7065;50.880;5.502;2022-11-21T00:08:12;6.30;99.90
13982;DHT22;7065;50.880;5.502;2022-11-21T00:10:39;6.20;99.90
13982;DHT22;7065;50.880;5.502;2022-11-21T00:13:05;6.20;99.90
13982;DHT22;7065;50.880;5.502;2022-11-21T00:15:32;6.10;99.90
13982;DHT22;7065;50.880;5.502;2022-11-21T00:17:58;6.10;99.90
13982;DHT22;7065;50.880;5.502;2022-11-21T00:20:26;6.10;99.90
13982;DHT22;7065;50.880;5.502;2022-11-21T00:22:51;6.20;99.90
13982;DHT22;7065;50.880;5.502;2022-11-21T00:25:18;6.20;99.90
13982;DHT22;7065;50.880;5.502;2022-11-21T00:27:43;6.20;99.90
13982;DHT22;7065;50.880;5.502;2022-11-21T00:30:10;6.20;99.90
13982;DHT22;7065;50.880;5.502;2022-11-21T00:32:37;6.20;99.90
13982;DHT22;7065;50.880;5.502;2022-11-21T00:35:03;6.20;99.90
13982;DHT22;7065;50.880;5.502;2022-11-21T00:37:28;6.20;99.90
13982;DHT22;7065;50.880;5.502;2022-11-21T00:39:55;6.20;99.90
13982;DHT22;7065;50.880;5.502;2022-11-21T00:42:21;6.20;99.90
13982;DHT22;7065;50.880;5.502;2022-11-21T00:44:47;6.20;99.90
13982;DHT22;7065;50.880;5.502;2022-11-21T00:47:12;6.20;99.90
13982;DHT22;7065;50.880;5.502;2022-11-21T00:49:38;6.10;99.90
13982;DHT22;7065;50.880;5.502;2022-11-21T00:52:03;6.10;99.90
13982;DHT22;7065;50.880;5.502;2022-11-21T00:54:29;6.10;99.90
13982;DHT22;7065;50.880;5.502;2022-11-21T00:56:55;6.10;99.90
13982;DHT22;7065;50.880;5.502;2022-11-21T00:59:20;6.10;99.90
13982;DHT22;7065;50.880;5.502;2022-11-21T01:01:46;6.10;99.90
13982;DHT22;7065;50.880;5.502;2022-11-21T01:04:12;6.10;99.90
13982;DHT22;7065;50.880;5.502;2022-11-21T01:06:38;6.10;99.90
13982;DHT22;7065;50.880;5.502;2022-11-21T01:09:04;6.10;99.90
13982;DHT22;7065;50.880;5.502;2022-11-21T01:11:29;6.00;99.90
13982;DHT22;7065;50.880;5.502;2022-11-21T01:13:55;6.00;99.90
13982;DHT22;7065;50.880;5.502;2022-11-21T01:16:25;6.00;99.90
13982;DHT22;7065;50.880;5.502;2022-11-21T01:18:52;6.00;99.90
13982;DHT22;7065;50.880;5.502;2022-11-21T01:21:20;5.90;99.90
13982;DHT22;7065;50.880;5.502;2022-11-21T01:23:46;5.90;99.90
13982;DHT22;7065;50.880;5.502;2022-11-21T01:26:14;5.90;99.90
13982;DHT22;7065;50.880;5.502;2022-11-21T01:28:40;5.80;99.90
13982;DHT22;7065;50.880;5.502;2022-11-21T01:31:07;5.80;99.90
13982;DHT22;7065;50.880;5.502;2022-11-21T01:33:34;5.70;99.90
13982;DHT22;7065;50.880;5.502;2022-11-21T01:38:36;5.80;99.90
13982;DHT22;7065;50.880;5.502;2022-11-21T01:41:02;5.80;99.90
13982;DHT22;7065;50.880;5.502;2022-11-21T01:43:28;5.90;99.90
13982;DHT22;7065;50.880;5.502;2022-11-21T01:48:33;5.90;99.90
13982;DHT22;7065;50.880;5.502;2022-11-21T01:51:06;6.00;99.90
13982;DHT22;7065;50.880;5.502;2022-11-21T01:53:34;5.90;99.90
13982;DHT22;7065;50.880;5.502;2022-11-21T01:56:00;6.00;99.90
13982;DHT22;7065;50.880;5.502;2022-11-21T01:58:28;5.90;99.90
13982;DHT22;7065;50.880;5.502;2022-11-21T02:00:55;6.00;99.90
13982;DHT22;7065;50.880;5.502;2022-11-21T02:03:24;6.00;99.90
13982;DHT22;7065;50.880;5.502;2022-11-21T02:05:53;6.00;99.90
13982;DHT22;7065;50.880;5.502;2022-11-21T02:08:20;6.00;99.90
13982;DHT22;7065;50.880;5.502;2022-11-21T02:13:58;6.00;99.90
13982;DHT22;7065;50.880;5.502;2022-11-21T02:16:25;6.00;99.90
13982;DHT22;7065;50.880;5.502;2022-11-21T02:18:52;6.00;99.90
13982;DHT22;7065;50.880;5.502;2022-11-21T02:21:37;6.00;99.90
13982;DHT22;7065;50.880;5.502;2022-11-21T02:26:39;6.00;99.90
13982;DHT22;7065;50.880;5.502;2022-11-21T02:29:06;6.00;99.90
13982;DHT22;7065;50.880;5.502;2022-11-21T02:31:32;6.00;99.90
13982;DHT22;7065;50.880;5.502;2022-11-21T02:33:57;6.00;99.90
13982;DHT22;7065;50.880;5.502;2022-11-21T02:36:52;6.00;99.90
13982;DHT22;7065;50.880;5.502;2022-11-21T02:39:25;6.00;99.90
13982;DHT22;7065;50.880;5.502;2022-11-21T02:42:36;6.00;99.90
13982;DHT22;7065;50.880;5.502;2022-11-21T02:45:54;6.00;99.90
13982;DHT22;7065;50.880;5.502;2022-11-21T02:48:01;5.90;99.90
13982;DHT22;7065;50.880;5.502;2022-11-21T02:50:36;5.90;99.90
13982;DHT22;7065;50.880;5.502;2022-11-21T02:53:04;5.90;99.90
13982;DHT22;7065;50.880;5.502;2022-11-21T02:55:31;5.90;99.90
13982;DHT22;7065;50.880;5.502;2022-11-21T02:57:56;5.90;99.90
13982;DHT22;7065;50.880;5.502;2022-11-21T03:00:22;5.90;99.90
13982;DHT22;7065;50.880;5.502;2022-11-21T03:02:49;5.90;99.90
13982;DHT22;7065;50.880;5.502;2022-11-21T03:05:16;5.90;99.90
13982;DHT22;7065;50.880;5.502;2022-11-21T03:07:43;5.90;99.90
13982;DHT22;7065;50.880;5.502;2022-11-21T03:10:09;5.90;99.90
13982;DHT22;7065;50.880;5.502;2022-11-21T03:12:39;5.90;99.90
13982;DHT22;7065;50.880;5.502;2022-11-21T03:15:06;5.90;99.90
13982;DHT22;7065;50.880;5.502;2022-11-21T03:17:33;5.90;99.90
13982;DHT22;7065;50.880;5.502;2022-11-21T03:19:58;5.90;99.90
13982;DHT22;7065;50.880;5.502;2022-11-21T03:22:24;5.90;99.90
13982;DHT22;7065;50.880;5.502;2022-11-21T03:24:50;5.90;99.90
13982;DHT22;7065;50.880;5.502;2022-11-21T03:27:15;5.90;99.90
13982;DHT22;7065;50.880;5.502;2022-11-21T03:29:41;5.90;99.90
13982;DHT22;7065;50.880;5.502;2022-11-21T03:32:07;5.90;99.90
13982;DHT22;7065;50.880;5.502;2022-11-21T03:34:32;5.90;99.90
13982;DHT22;7065;50.880;5.502;2022-11-21T03:36:58;5.90;99.90
13982;DHT22;7065;50.880;5.502;2022-11-21T03:39:23;5.90;99.90
13982;DHT22;7065;50.880;5.502;2022-11-21T03:41:49;5.80;99.90
13982;DHT22;7065;50.880;5.502;2022-11-21T03:44:15;5.80;99.90
13982;DHT22;7065;50.880;5.502;2022-11-21T03:46:43;5.90;99.90
13982;DHT22;7065;50.880;5.502;2022-11-21T03:49:10;5.80;99.90
13982;DHT22;7065;50.880;5.502;2022-11-21T03:51:36;5.80;99.90
13982;DHT22;7065;50.880;5.502;2022-11-21T03:54:02;5.80;99.90
13982;DHT22;7065;50.880;5.502;2022-11-21T03:56:28;5.80;99.90
13982;DHT22;7065;50.880;5.502;2022-11-21T03:58:54;5.90;99.90
13982;DHT22;7065;50.880;5.502;2022-11-21T04:01:21;5.90;99.90
13982;DHT22;7065;50.880;5.502;2022-11-21T04:03:47;5.90;99.90
13982;DHT22;7065;50.880;5.502;2022-11-21T04:06:15;5.90;99.90
13982;DHT22;7065;50.880;5.502;2022-11-21T04:08:41;5.90;99.90
13982;DHT22;7065;50.880;5.502;2022-11-21T04:11:07;5.90;99.90
13982;DHT22;7065;50.880;5.502;2022-11-21T04:13:33;5.90;99.90
13982;DHT22;7065;50.880;5.502;2022-11-21T04:15:59;5.90;99.90
13982;DHT22;7065;50.880;5.502;2022-11-21T04:18:25;5.90;99.90
13982;DHT22;7065;50.880;5.502;2022-11-21T04:21:01;5.90;99.90
13982;DHT22;7065;50.880;5.502;2022-11-21T04:23:27;6.00;99.90
13982;DHT22;7065;50.880;5.502;2022-11-21T04:25:54;6.00;99.90
13982;DHT22;7065;50.880;5.502;2022-11-21T04:28:20;6.00;99.90
13982;DHT22;7065;50.880;5.502;2022-11-21T04:30:46;6.00;99.90
13982;DHT22;7065;50.880;5.502;2022-11-21T04:33:13;6.00;99.90
13982;DHT22;7065;50.880;5.502;2022-11-21T04:35:39;6.00;99.90
13982;DHT22;7065;50.880;5.502;2022-11-21T04:38:05;6.00;99.90
13982;DHT22;7065;50.880;5.502;2022-11-21T04:40:31;6.00;99.90
13982;DHT22;7065;50.880;5.502;2022-11-21T04:42:57;6.00;99.90
13982;DHT22;7065;50.880;5.502;2022-11-21T04:45:22;6.10;99.90
13982;DHT22;7065;50.880;5.502;2022-11-21T04:47:48;6.10;99.90
13982;DHT22;7065;50.880;5.502;2022-11-21T04:50:16;6.00;99.90
13982;DHT22;7065;50.880;5.502;2022-11-21T04:52:47;6.10;99.90
13982;DHT22;7065;50.880;5.502;2022-11-21T04:55:13;6.10;99.90
13982;DHT22;7065;50.880;5.502;2022-11-21T04:57:39;6.10;99.90
13982;DHT22;7065;50.880;5.502;2022-11-21T05:00:05;6.10;99.90
13982;DHT22;7065;50.880;5.502;2022-11-21T05:02:31;6.10;99.90
13982;DHT22;7065;50.880;5.502;2022-11-21T05:04:58;6.00;99.90
13982;DHT22;7065;50.880;5.502;2022-11-21T05:07:24;6.00;99.90
13982;DHT22;7065;50.880;5.502;2022-11-21T05:09:49;6.00;99.90
13982;DHT22;7065;50.880;5.502;2022-11-21T05:12:15;6.00;99.90
13982;DHT22;7065;50.880;5.502;2022-11-21T05:14:59;6.00;99.90
13982;DHT22;7065;50.880;5.502;2022-11-21T05:17:27;6.00;99.90
13982;DHT22;7065;50.880;5.502;2022-11-21T05:19:53;6.00;99.90
13982;DHT22;7065;50.880;5.502;2022-11-21T05:22:19;5.90;99.90
13982;DHT22;7065;50.880;5.502;2022-11-21T05:24:44;5.90;99.90
13982;DHT22;7065;50.880;5.502;2022-11-21T05:27:10;5.80;99.90
13982;DHT22;7065;50.880;5.502;2022-11-21T05:29:36;5.70;99.90
13982;DHT22;7065;50.880;5.502;2022-11-21T05:32:01;5.70;99.90
13982;DHT22;7065;50.880;5.502;2022-11-21T05:34:27;5.60;99.90
13982;DHT22;7065;50.880;5.502;2022-11-21T05:36:53;5.60;99.90
13982;DHT22;7065;50.880;5.502;2022-11-21T05:39:25;5.50;99.90
13982;DHT22;7065;50.880;5.502;2022-11-21T05:41:50;5.50;99.90
13982;DHT22;7065;50.880;5.502;2022-11-21T05:44:16;5.50;99.90
13982;DHT22;7065;50.880;5.502;2022-11-21T05:46:43;5.40;99.90
13982;DHT22;7065;50.880;5.502;2022-11-21T05:49:09;5.40;99.90
13982;DHT22;7065;50.880;5.502;2022-11-21T05:51:35;5.40;99.90
13982;DHT22;7065;50.880;5.502;2022-11-21T05:54:00;5.30;99.90
13982;DHT22;7065;50.880;5.502;2022-11-21T05:56:26;5.30;99.90
13982;DHT22;7065;50.880;5.502;2022-11-21T05:58:55;5.20;99.90
13982;DHT22;7065;50.880;5.502;2022-11-21T06:01:22;5.20;99.90
13982;DHT22;7065;50.880;5.502;2022-11-21T06:04:07;5.20;99.90
13982;DHT22;7065;50.880;5.502;2022-11-21T06:06:33;5.10;99.90
13982;DHT22;7065;50.880;5.502;2022-11-21T06:08:59;5.10;99.90
13982;DHT22;7065;50.880;5.502;2022-11-21T06:11:25;5.10;99.90
13982;DHT22;7065;50.880;5.502;2022-11-21T06:13:51;5.10;99.90
13982;DHT22;7065;50.880;5.502;2022-11-21T06:16:18;5.10;99.90
13982;DHT22;7065;50.880;5.502;2022-11-21T06:18:48;5.10;99.90
13982;DHT22;7065;50.880;5.502;2022-11-21T06:21:16;5.20;99.90
13982;DHT22;7065;50.880;5.502;2022-11-21T06:23:42;5.20;99.90
13982;DHT22;7065;50.880;5.502;2022-11-21T06:26:13;5.30;99.90
13982;DHT22;7065;50.880;5.502;2022-11-21T06:28:40;5.30;99.90
13982;DHT22;7065;50.880;5.502;2022-11-21T06:31:09;5.40;99.90
13982;DHT22;7065;50.880;5.502;2022-11-21T06:33:35;5.40;99.90
13982;DHT22;7065;50.880;5.502;2022-11-21T06:36:05;5.50;99.90
13982;DHT22;7065;50.880;5.502;2022-11-21T06:38:31;5.50;99.90
13982;DHT22;7065;50.880;5.502;2022-11-21T06:40:58;5.50;99.90
13982;DHT22;7065;50.880;5.502;2022-11-21T06:43:27;5.50;99.90
13982;DHT22;7065;50.880;5.502;2022-11-21T06:45:55;5.60;99.90
13982;DHT22;7065;50.880;5.502;2022-11-21T06:48:21;5.60;99.90
13982;DHT22;7065;50.880;5.502;2022-11-21T06:50:47;5.60;99.90
13982;DHT22;7065;50.880;5.502;2022-11-21T06:53:12;5.60;99.90
13982;DHT22;7065;50.880;5.502;2022-11-21T06:55:38;5.60;99.90
13982;DHT22;7065;50.880;5.502;2022-11-21T06:58:03;5.60;99.90
13982;DHT22;7065;50.880;5.502;2022-11-21T07:00:29;5.60;99.90
13982;DHT22;7065;50.880;5.502;2022-11-21T07:03:00;5.70;99.90
13982;DHT22;7065;50.880;5.502;2022-11-21T07:05:26;5.70;99.90
13982;DHT22;7065;50.880;5.502;2022-11-21T07:08:00;5.70;99.90
13982;DHT22;7065;50.880;5.502;2022-11-21T07:10:27;5.70;99.90
13982;DHT22;7065;50.880;5.502;2022-11-21T07:12:57;5.70;99.90
13982;DHT22;7065;50.880;5.502;2022-11-21T07:15:42;5.80;99.90
13982;DHT22;7065;50.880;5.502;2022-11-21T07:18:08;5.80;99.90
13982;DHT22;7065;50.880;5.502;2022-11-21T07:20:33;5.80;99.90
13982;DHT22;7065;50.880;5.502;2022-11-21T07:22:59;5.80;99.90
13982;DHT22;7065;50.880;5.502;2022-11-21T07:25:25;5.70;99.90
13982;DHT22;7065;50.880;5.502;2022-11-21T07:27:51;5.70;99.90
13982;DHT22;7065;50.880;5.502;2022-11-21T07:30:17;5.70;99.90
13982;DHT22;7065;50.880;5.502;2022-11-21T07:32:42;5.70;99.90
13982;DHT22;7065;50.880;5.502;2022-11-21T07:35:08;5.60;99.90
13982;DHT22;7065;50.880;5.502;2022-11-21T07:37:38;5.60;99.90
13982;DHT22;7065;50.880;5.502;2022-11-21T07:40:05;5.50;99.90
13982;DHT22;7065;50.880;5.502;2022-11-21T07:42:33;5.50;99.90
13982;DHT22;7065;50.880;5.502;2022-11-21T07:44:59;5.40;99.90
13982;DHT22;7065;50.880;5.502;2022-11-21T07:47:25;5.40;99.90
13982;DHT22;7065;50.880;5.502;2022-11-21T07:49:50;5.30;99.90
13982;DHT22;7065;50.880;5.502;2022-11-21T07:52:16;5.30;99.90
13982;DHT22;7065;50.880;5.502;2022-11-21T07:54:42;5.20;99.90
13982;DHT22;7065;50.880;5.502;2022-11-21T07:57:07;5.30;99.90
13982;DHT22;7065;50.880;5.502;2022-11-21T07:59:33;5.30;99.90
13982;DHT22;7065;50.880;5.502;2022-11-21T08:01:59;5.30;99.90
13982;DHT22;7065;50.880;5.502;2022-11-21T08:04:25;5.30;99.90
13982;DHT22;7065;50.880;5.502;2022-11-21T08:06:50;5.30;99.90
13982;DHT22;7065;50.880;5.502;2022-11-21T08:09:16;5.30;99.90
13982;DHT22;7065;50.880;5.502;2022-11-21T08:11:41;5.30;99.90
13982;DHT22;7065;50.880;5.502;2022-11-21T08:14:07;5.40;99.90
13982;DHT22;7065;50.880;5.502;2022-11-21T08:16:33;5.30;99.90
13982;DHT22;7065;50.880;5.502;2022-11-21T08:18:59;5.40;99.90
13982;DHT22;7065;50.880;5.502;2022-11-21T08:21:25;5.40;99.90
13982;DHT22;7065;50.880;5.502;2022-11-21T08:23:51;5.40;99.90
13982;DHT22;7065;50.880;5.502;2022-11-21T08:26:17;5.50;99.90
13982;DHT22;7065;50.880;5.502;2022-11-21T08:28:43;5.50;99.90
13982;DHT22;7065;50.880;5.502;2022-11-21T08:31:08;5.50;99.90
13982;DHT22;7065;50.880;5.502;2022-11-21T08:33:34;5.60;99.90
13982;DHT22;7065;50.880;5.502;2022-11-21T08:36:05;5.60;99.90
13982;DHT22;7065;50.880;5.502;2022-11-21T08:38:31;5.60;99.90
13982;DHT22;7065;50.880;5.502;2022-11-21T08:40:57;5.60;99.90
13982;DHT22;7065;50.880;5.502;2022-11-21T08:43:41;5.60;99.90
13982;DHT22;7065;50.880;5.502;2022-11-21T08:46:06;5.60;99.90
13982;DHT22;7065;50.880;5.502;2022-11-21T08:48:32;5.60;99.90
13982;DHT22;7065;50.880;5.502;2022-11-21T08:50:58;5.70;99.90
13982;DHT22;7065;50.880;5.502;2022-11-21T08:53:24;5.70;99.90
13982;DHT22;7065;50.880;5.502;2022-11-21T08:55:50;5.70;99.90
13982;DHT22;7065;50.880;5.502;2022-11-21T08:58:16;5.70;99.90
13982;DHT22;7065;50.880;5.502;2022-11-21T09:00:41;5.70;99.90
13982;DHT22;7065;50.880;5.502;2022-11-21T09:03:07;5.70;99.90
13982;DHT22;7065;50.880;5.502;2022-11-21T09:05:33;5.80;99.90
13982;DHT22;7065;50.880;5.502;2022-11-21T09:07:59;5.80;99.90
13982;DHT22;7065;50.880;5.502;2022-11-21T09:10:27;5.90;99.90
13982;DHT22;7065;50.880;5.502;2022-11-21T09:12:57;5.90;99.90
13982;DHT22;7065;50.880;5.502;2022-11-21T09:15:23;6.00;99.90
13982;DHT22;7065;50.880;5.502;2022-11-21T09:18:09;6.10;99.90
13982;DHT22;7065;50.880;5.502;2022-11-21T09:20:40;6.10;99.90
13982;DHT22;7065;50.880;5.502;2022-11-21T09:23:07;6.20;99.90
13982;DHT22;7065;50.880;5.502;2022-11-21T09:25:33;6.20;99.90
13982;DHT22;7065;50.880;5.502;2022-11-21T09:28:01;6.30;99.90
13982;DHT22;7065;50.880;5.502;2022-11-21T09:30:27;6.30;99.90
13982;DHT22;7065;50.880;5.502;2022-11-21T09:32:52;6.40;99.90
13982;DHT22;7065;50.880;5.502;2022-11-21T09:35:18;6.30;99.90
13982;DHT22;7065;50.880;5.502;2022-11-21T09:37:44;6.40;99.90
13982;DHT22;7065;50.880;5.502;2022-11-21T09:40:15;6.40;99.90
13982;DHT22;7065;50.880;5.502;2022-11-21T09:45:15;6.40;99.90
13982;DHT22;7065;50.880;5.502;2022-11-21T09:47:47;6.40;99.90
13982;DHT22;7065;50.880;5.502;2022-11-21T09:58:01;6.40;99.90
13982;DHT22;7065;50.880;5.502;2022-11-21T10:00:29;6.50;99.90
13982;DHT22;7065;50.880;5.502;2022-11-21T10:02:55;6.50;99.90
13982;DHT22;7065;50.880;5.502;2022-11-21T10:05:42;6.50;99.90
13982;DHT22;7065;50.880;5.502;2022-11-21T10:13:53;6.60;99.90
13982;DHT22;7065;50.880;5.502;2022-11-21T10:16:28;6.60;99.90
13982;DHT22;7065;50.880;5.502;2022-11-21T10:19:11;6.60;99.90
13982;DHT22;7065;50.880;5.502;2022-11-21T10:22:07;6.60;99.90
13982;DHT22;7065;50.880;5.502;2022-11-21T10:24:42;6.60;99.90
13982;DHT22;7065;50.880;5.502;2022-11-21T10:27:16;6.60;99.90
13982;DHT22;7065;50.880;5.502;2022-11-21T10:29:56;6.70;99.90
13982;DHT22;7065;50.880;5.502;2022-11-21T10:32:29;6.70;99.90
13982;DHT22;7065;50.880;5.502;2022-11-21T10:34:58;6.70;99.90
13982;DHT22;7065;50.880;5.502;2022-11-21T10:37:36;6.70;99.90
13982;DHT22;7065;50.880;5.502;2022-11-21T10:40:13;6.80;99.90
13982;DHT22;7065;50.880;5.502;2022-11-21T10:42:56;6.90;99.90
13982;DHT22;7065;50.880;5.502;2022-11-21T10:45:23;6.90;99.90
13982;DHT22;7065;50.880;5.502;2022-11-21T10:47:50;6.90;99.90
13982;DHT22;7065;50.880;5.502;2022-11-21T10:53:19;7.00;99.90
13982;DHT22;7065;50.880;5.502;2022-11-21T10:56:10;7.10;99.90
13982;DHT22;7065;50.880;5.502;2022-11-21T11:01:18;7.20;99.90
13982;DHT22;7065;50.880;5.502;2022-11-21T11:03:44;7.30;99.90
13982;DHT22;7065;50.880;5.502;2022-11-21T11:06:10;7.30;99.90
13982;DHT22;7065;50.880;5.502;2022-11-21T11:09:02;7.40;99.90
13982;DHT22;7065;50.880;5.502;2022-11-21T11:11:28;7.50;99.90
13982;DHT22;7065;50.880;5.502;2022-11-21T11:13:57;7.60;99.90
13982;DHT22;7065;50.880;5.502;2022-11-21T11:16:25;7.70;99.90
13982;DHT22;7065;50.880;5.502;2022-11-21T11:19:01;7.70;99.90
13982;DHT22;7065;50.880;5.502;2022-11-21T11:21:41;7.70;99.90
13982;DHT22;7065;50.880;5.502;2022-11-21T11:29:16;7.90;99.90
13982;DHT22;7065;50.880;5.502;2022-11-21T11:34:15;7.90;99.90
13982;DHT22;7065;50.880;5.502;2022-11-21T11:42:08;7.80;99.90
13982;DHT22;7065;50.880;5.502;2022-11-21T11:47:58;7.90;99.90
13982;DHT22;7065;50.880;5.502;2022-11-21T11:50:35;7.90;99.90
13982;DHT22;7065;50.880;5.502;2022-11-21T11:53:28;8.00;99.90
13982;DHT22;7065;50.880;5.502;2022-11-21T11:56:00;8.00;99.90
13982;DHT22;7065;50.880;5.502;2022-11-21T12:01:19;8.00;99.90
13982;DHT22;7065;50.880;5.502;2022-11-21T12:03:58;8.10;99.90
13982;DHT22;7065;50.880;5.502;2022-11-21T12:06:33;8.10;99.90
13982;DHT22;7065;50.880;5.502;2022-11-21T12:12:09;8.20;99.90
13982;DHT22;7065;50.880;5.502;2022-11-21T12:15:22;8.20;99.90
13982;DHT22;7065;50.880;5.502;2022-11-21T12:23:45;8.30;99.90
13982;DHT22;7065;50.880;5.502;2022-11-21T12:26:26;8.30;99.90
13982;DHT22;7065;50.880;5.502;2022-11-21T12:36:52;8.40;99.90
13982;DHT22;7065;50.880;5.502;2022-11-21T12:57:09;8.70;99.90
13982;DHT22;7065;50.880;5.502;2022-11-21T13:02:24;8.70;99.90
13982;DHT22;7065;50.880;5.502;2022-11-21T13:04:53;8.70;99.90
13982;DHT22;7065;50.880;5.502;2022-11-21T13:07:21;8.70;99.90
13982;DHT22;7065;50.880;5.502;2022-11-21T13:09:51;8.70;99.90
13982;DHT22;7065;50.880;5.502;2022-11-21T13:12:32;8.70;99.90
13982;DHT22;7065;50.880;5.502;2022-11-21T13:18:13;8.80;99.90
13982;DHT22;7065;50.880;5.502;2022-11-21T13:20:46;8.90;99.90
13982;DHT22;7065;50.880;5.502;2022-11-21T13:23:40;8.90;99.90
13982;DHT22;7065;50.880;5.502;2022-11-21T13:28:51;8.90;99.90
13982;DHT22;7065;50.880;5.502;2022-11-21T13:31:34;8.90;99.90
13982;DHT22;7065;50.880;5.502;2022-11-21T13:34:02;8.90;99.90
13982;DHT22;7065;50.880;5.502;2022-11-21T13:44:45;8.80;99.90
13982;DHT22;7065;50.880;5.502;2022-11-21T13:47:47;8.80;99.90
13982;DHT22;7065;50.880;5.502;2022-11-21T13:50:29;8.80;99.90
13982;DHT22;7065;50.880;5.502;2022-11-21T13:53:13;8.80;99.90
13982;DHT22;7065;50.880;5.502;2022-11-21T13:56:01;8.90;99.90
13982;DHT22;7065;50.880;5.502;2022-11-21T13:59:14;8.80;99.90
13982;DHT22;7065;50.880;5.502;2022-11-21T14:09:56;8.70;99.90
13982;DHT22;7065;50.880;5.502;2022-11-21T14:12:36;8.70;99.90
13982;DHT22;7065;50.880;5.502;2022-11-21T14:17:52;8.70;99.90
13982;DHT22;7065;50.880;5.502;2022-11-21T14:20:27;8.70;99.90
13982;DHT22;7065;50.880;5.502;2022-11-21T14:23:03;8.70;99.90
13982;DHT22;7065;50.880;5.502;2022-11-21T14:25:42;8.60;99.90
13982;DHT22;7065;50.880;5.502;2022-11-21T14:28:13;8.60;99.90
13982;DHT22;7065;50.880;5.502;2022-11-21T14:30:41;8.60;99.90
13982;DHT22;7065;50.880;5.502;2022-11-21T14:33:24;8.50;99.90
13982;DHT22;7065;50.880;5.502;2022-11-21T14:38:24;8.50;99.90
13982;DHT22;7065;50.880;5.502;2022-11-21T14:40:56;8.50;99.90
13982;DHT22;7065;50.880;5.502;2022-11-21T14:43:35;8.50;99.90
13982;DHT22;7065;50.880;5.502;2022-11-21T14:46:02;8.50;99.90
13982;DHT22;7065;50.880;5.502;2022-11-21T14:48:28;8.50;99.90
13982;DHT22;7065;50.880;5.502;2022-11-21T14:50:58;8.50;99.90
13982;DHT22;7065;50.880;5.502;2022-11-21T14:53:25;8.50;99.90
13982;DHT22;7065;50.880;5.502;2022-11-21T14:55:51;8.50;99.90
13982;DHT22;7065;50.880;5.502;2022-11-21T14:58:17;8.50;99.90
13982;DHT22;7065;50.880;5.502;2022-11-21T15:01:03;8.50;99.90
13982;DHT22;7065;50.880;5.502;2022-11-21T15:03:30;8.40;99.90
13982;DHT22;7065;50.880;5.502;2022-11-21T15:06:00;8.40;99.90
13982;DHT22;7065;50.880;5.502;2022-11-21T15:08:26;8.30;99.90
13982;DHT22;7065;50.880;5.502;2022-11-21T15:10:53;8.30;99.90
13982;DHT22;7065;50.880;5.502;2022-11-21T15:13:23;8.30;99.90
13982;DHT22;7065;50.880;5.502;2022-11-21T15:15:51;8.30;99.90
13982;DHT22;7065;50.880;5.502;2022-11-21T15:18:23;8.20;99.90
13982;DHT22;7065;50.880;5.502;2022-11-21T15:20:55;8.20;99.90
13982;DHT22;7065;50.880;5.502;2022-11-21T15:23:26;8.20;99.90
13982;DHT22;7065;50.880;5.502;2022-11-21T15:25:52;8.20;99.90
13982;DHT22;7065;50.880;5.502;2022-11-21T15:28:18;8.20;99.90
13982;DHT22;7065;50.880;5.502;2022-11-21T15:30:44;8.20;99.90
13982;DHT22;7065;50.880;5.502;2022-11-21T15:35:54;8.10;99.90
13982;DHT22;7065;50.880;5.502;2022-11-21T15:38:32;8.10;99.90
13982;DHT22;7065;50.880;5.502;2022-11-21T15:43:43;8.10;99.90
13982;DHT22;7065;50.880;5.502;2022-11-21T15:46:14;8.00;99.90
13982;DHT22;7065;50.880;5.502;2022-11-21T15:48:42;8.00;99.90
13982;DHT22;7065;50.880;5.502;2022-11-21T15:51:09;8.00;99.90
13982;DHT22;7065;50.880;5.502;2022-11-21T15:53:36;8.00;99.90
13982;DHT22;7065;50.880;5.502;2022-11-21T15:56:01;8.00;99.90
13982;DHT22;7065;50.880;5.502;2022-11-21T15:58:27;7.90;99.90
13982;DHT22;7065;50.880;5.502;2022-11-21T16:00:53;7.90;99.90
13982;DHT22;7065;50.880;5.502;2022-11-21T16:03:19;7.90;99.90
13982;DHT22;7065;50.880;5.502;2022-11-21T16:05:44;7.80;99.90
13982;DHT22;7065;50.880;5.502;2022-11-21T16:08:10;7.90;99.90
13982;DHT22;7065;50.880;5.502;2022-11-21T16:10:35;7.80;99.90
13982;DHT22;7065;50.880;5.502;2022-11-21T16:13:01;7.80;99.90
13982;DHT22;7065;50.880;5.502;2022-11-21T16:15:27;7.80;99.90
13982;DHT22;7065;50.880;5.502;2022-11-21T16:17:53;7.80;99.90
13982;DHT22;7065;50.880;5.502;2022-11-21T16:20:19;7.80;99.90
13982;DHT22;7065;50.880;5.502;2022-11-21T16:22:45;7.80;99.90
13982;DHT22;7065;50.880;5.502;2022-11-21T16:25:10;7.70;99.90
13982;DHT22;7065;50.880;5.502;2022-11-21T16:27:36;7.70;99.90
13982;DHT22;7065;50.880;5.502;2022-11-21T16:30:02;7.70;99.90
13982;DHT22;7065;50.880;5.502;2022-11-21T16:32:28;7.70;99.90
13982;DHT22;7065;50.880;5.502;2022-11-21T16:34:54;7.70;99.90
13982;DHT22;7065;50.880;5.502;2022-11-21T16:37:19;7.70;99.90
13982;DHT22;7065;50.880;5.502;2022-11-21T16:39:45;7.70;99.90
13982;DHT22;7065;50.880;5.502;2022-11-21T16:42:17;7.70;99.90
13982;DHT22;7065;50.880;5.502;2022-11-21T16:44:43;7.60;99.90
13982;DHT22;7065;50.880;5.502;2022-11-21T16:47:09;7.60;99.90
13982;DHT22;7065;50.880;5.502;2022-11-21T16:49:35;7.60;99.90
13982;DHT22;7065;50.880;5.502;2022-11-21T16:52:07;7.70;99.90
13982;DHT22;7065;50.880;5.502;2022-11-21T16:54:33;7.70;99.90
13982;DHT22;7065;50.880;5.502;2022-11-21T16:56:59;7.70;99.90
13982;DHT22;7065;50.880;5.502;2022-11-21T16:59:24;7.70;99.90
13982;DHT22;7065;50.880;5.502;2022-11-21T17:01:50;7.70;99.90
13982;DHT22;7065;50.880;5.502;2022-11-21T17:04:16;7.70;99.90
13982;DHT22;7065;50.880;5.502;2022-11-21T17:06:42;7.70;99.90
13982;DHT22;7065;50.880;5.502;2022-11-21T17:09:08;7.70;99.90
13982;DHT22;7065;50.880;5.502;2022-11-21T17:11:34;7.70;99.90
13982;DHT22;7065;50.880;5.502;2022-11-21T17:14:03;7.70;99.90
13982;DHT22;7065;50.880;5.502;2022-11-21T17:16:30;7.70;99.90
13982;DHT22;7065;50.880;5.502;2022-11-21T17:18:58;7.70;99.90
13982;DHT22;7065;50.880;5.502;2022-11-21T17:21:25;7.70;99.90
13982;DHT22;7065;50.880;5.502;2022-11-21T17:23:51;7.70;99.90
13982;DHT22;7065;50.880;5.502;2022-11-21T17:26:19;7.70;99.90
13982;DHT22;7065;50.880;5.502;2022-11-21T17:28:55;7.70;99.90
13982;DHT22;7065;50.880;5.502;2022-11-21T17:31:22;7.70;99.90
13982;DHT22;7065;50.880;5.502;2022-11-21T17:33:48;7.70;99.90
13982;DHT22;7065;50.880;5.502;2022-11-21T17:36:22;7.70;99.90
13982;DHT22;7065;50.880;5.502;2022-11-21T17:38:47;7.70;99.90
13982;DHT22;7065;50.880;5.502;2022-11-21T17:41:15;7.70;99.90
13982;DHT22;7065;50.880;5.502;2022-11-21T17:43:41;7.70;99.90
13982;DHT22;7065;50.880;5.502;2022-11-21T17:46:13;7.70;99.90
13982;DHT22;7065;50.880;5.502;2022-11-21T17:48:39;7.70;99.90
13982;DHT22;7065;50.880;5.502;2022-11-21T17:51:14;7.70;99.90
13982;DHT22;7065;50.880;5.502;2022-11-21T17:53:42;7.70;99.90
13982;DHT22;7065;50.880;5.502;2022-11-21T17:56:17;7.70;99.90
13982;DHT22;7065;50.880;5.502;2022-11-21T17:58:44;7.70;99.90
13982;DHT22;7065;50.880;5.502;2022-11-21T18:01:10;7.70;99.90
13982;DHT22;7065;50.880;5.502;2022-11-21T18:03:47;7.70;99.90
13982;DHT22;7065;50.880;5.502;2022-11-21T18:06:15;7.70;99.90
13982;DHT22;7065;50.880;5.502;2022-11-21T18:08:44;7.70;99.90
13982;DHT22;7065;50.880;5.502;2022-11-21T18:11:11;7.70;99.90
13982;DHT22;7065;50.880;5.502;2022-11-21T18:13:38;7.70;99.90
13982;DHT22;7065;50.880;5.502;2022-11-21T18:16:08;7.70;99.90